Time;durP1;ratioP1;P1;durP2;ratioP2;P2;SDS_P1;SDS_P2;PMS_P1;PMS_P2;Temp;Humidity;BMP_temperature;BMP_pressure;BME280_temperature;BME280_humidity;BME280_pressure;Samples;Min_cycle;Max_cycle;Signal;HPM_P1;HPM_P2
2021/01/05 00:00:00;;;;;;;28.43;20.40;;;;;;;;;;5015979;28;20100;-66
2021/01/05 00:02:27;;;;;;;28.03;20.03;;;;;;;;;;5017468;28;20026;-66
2021/01/05 00:04:53;;;;;;;29.40;21.83;;;;;;;;;;5017048;28;20033;-66
2021/01/05 00:07:19;;;;;;;26.17;19.60;;;;;;;;;;5016927;28;20430;-66
2021/01/05 00:09:45;;;;;;;30.73;21.50;;;;;;;;;;5017201;28;20050;-66
2021/01/05 00:12:12;;;;;;;28.20;20.00;;;;;;;;;;5017258;28;20018;-66
2021/01/05 00:14:42;;;;;;;28.97;20.37;;;;;;;;;;5017098;28;20029;-66
2021/01/05 00:17:08;;;;;;;28.97;21.30;;;;;;;;;;5016450;28;20034;-66
2021/01/05 00:19:35;;;;;;;32.10;22.30;;;;;;;;;;5017198;28;20100;-66
2021/01/05 00:22:01;;;;;;;31.50;22.53;;;;;;;;;;5016959;28;20022;-66
2021/01/05 00:24:27;;;;;;;31.57;21.60;;;;;;;;;;5016885;28;20029;-66
2021/01/05 00:26:53;;;;;;;31.67;21.97;;;;;;;;;;5016866;28;20033;-66
2021/01/05 00:29:19;;;;;;;32.83;22.67;;;;;;;;;;5016638;28;20065;-66
2021/01/05 00:31:45;;;;;;;27.53;20.23;;;;;;;;;;5016562;28;20022;-66
2021/01/05 00:34:11;;;;;;;26.70;19.73;;;;;;;;;;5016858;28;20100;-66
2021/01/05 00:36:38;;;;;;;29.67;19.30;;;;;;;;;;5016575;28;20026;-66
2021/01/05 00:39:05;;;;;;;23.13;18.37;;;;;;;;;;5016746;28;20093;-66
2021/01/05 00:41:32;;;;;;;28.93;20.70;;;;;;;;;;5016246;28;20560;-65
2021/01/05 00:43:58;;;;;;;28.43;20.43;;;;;;;;;;5016488;28;20029;-65
2021/01/05 00:46:24;;;;;;;28.60;20.67;;;;;;;;;;5016617;28;20034;-66
2021/01/05 00:48:50;;;;;;;26.90;19.93;;;;;;;;;;5016483;28;20474;-66
2021/01/05 00:51:16;;;;;;;29.87;21.03;;;;;;;;;;5016467;28;20029;-66
2021/01/05 00:53:43;;;;;;;27.73;19.93;;;;;;;;;;5016536;28;20045;-66
2021/01/05 00:56:09;;;;;;;28.73;18.57;;;;;;;;;;5016094;28;20018;-66
2021/01/05 00:58:35;;;;;;;25.13;17.90;;;;;;;;;;5016186;28;20400;-66
2021/01/05 01:01:01;;;;;;;24.63;17.90;;;;;;;;;;5016089;28;20053;-66
2021/01/05 01:03:27;;;;;;;26.90;18.97;;;;;;;;;;5016171;28;20029;-66
2021/01/05 01:05:53;;;;;;;24.13;17.67;;;;;;;;;;5015917;28;20081;-66
2021/01/05 01:08:20;;;;;;;26.13;17.77;;;;;;;;;;5015693;28;20022;-66
2021/01/05 01:10:46;;;;;;;24.37;16.77;;;;;;;;;;5014763;28;20053;-66
2021/01/05 01:13:13;;;;;;;20.23;15.80;;;;;;;;;;5015857;28;20370;-66
2021/01/05 01:15:39;;;;;;;24.80;17.37;;;;;;;;;;5016008;28;20033;-66
2021/01/05 01:18:05;;;;;;;26.47;17.50;;;;;;;;;;5015550;28;20053;-66
2021/01/05 01:20:32;;;;;;;23.43;17.30;;;;;;;;;;5015864;28;20088;-66
2021/01/05 01:22:58;;;;;;;23.60;17.53;;;;;;;;;;5015646;28;20026;-66
2021/01/05 01:25:24;;;;;;;24.33;17.10;;;;;;;;;;5015809;28;20124;-66
2021/01/05 01:27:50;;;;;;;24.93;18.13;;;;;;;;;;5015796;28;20030;-66
2021/01/05 01:30:16;;;;;;;26.17;19.03;;;;;;;;;;5015790;28;20030;-66
2021/01/05 01:32:42;;;;;;;26.97;19.50;;;;;;;;;;5015564;28;20467;-66
2021/01/05 01:35:09;;;;;;;26.63;19.30;;;;;;;;;;5015553;28;20105;-66
2021/01/05 01:37:35;;;;;;;27.03;19.33;;;;;;;;;;5015480;28;20053;-66
2021/01/05 01:40:01;;;;;;;27.27;19.70;;;;;;;;;;5015130;28;20026;-66
2021/01/05 01:42:27;;;;;;;25.63;19.50;;;;;;;;;;5014149;28;20113;-66
2021/01/05 01:44:53;;;;;;;25.20;18.47;;;;;;;;;;5015200;28;20046;-66
2021/01/05 01:47:28;;;;;;;24.93;17.43;;;;;;;;;;5015275;28;20030;-66
2021/01/05 01:49:57;;;;;;;24.03;17.00;;;;;;;;;;5015313;28;20034;-66
2021/01/05 01:52:55;;;;;;;24.27;17.23;;;;;;;;;;5015400;28;20033;-65
2021/01/05 01:55:24;;;;;;;23.37;17.60;;;;;;;;;;5003559;28;20034;-66
2021/01/05 01:57:55;;;;;;;25.40;18.20;;;;;;;;;;5013991;28;20466;-66
2021/01/05 02:00:24;;;;;;;21.63;15.93;;;;;;;;;;5012080;28;20534;-66
2021/01/05 02:02:59;;;;;;;20.93;14.50;;;;;;;;;;5011829;28;20435;-66
2021/01/05 02:05:36;;;;;;;18.93;13.43;;;;;;;;;;5013798;28;20042;-66
2021/01/05 02:08:02;;;;;;;20.27;14.40;;;;;;;;;;5014998;28;20060;-66
2021/01/05 02:10:51;;;;;;;20.13;14.43;;;;;;;;;;5014985;28;20069;-66
2021/01/05 02:13:35;;;;;;;18.27;13.30;;;;;;;;;;5011373;28;20053;-66
2021/01/05 02:16:20;;;;;;;21.17;14.17;;;;;;;;;;5014825;28;20045;-66
2021/01/05 02:18:48;;;;;;;18.90;14.20;;;;;;;;;;5014372;28;20408;-66
2021/01/05 02:21:23;;;;;;;21.47;14.50;;;;;;;;;;5014123;28;20044;-66
2021/01/05 02:23:52;;;;;;;19.23;14.33;;;;;;;;;;5014363;28;20030;-66
2021/01/05 02:26:32;;;;;;;21.23;14.53;;;;;;;;;;5014505;28;20054;-66
2021/01/05 02:29:01;;;;;;;19.53;14.60;;;;;;;;;;5014010;28;20021;-66
2021/01/05 02:31:27;;;;;;;20.50;14.73;;;;;;;;;;5014511;28;20459;-66
2021/01/05 02:34:06;;;;;;;21.87;14.93;;;;;;;;;;5014528;28;20084;-66
2021/01/05 02:36:34;;;;;;;21.53;14.40;;;;;;;;;;5014165;28;20062;-65
2021/01/05 02:39:11;;;;;;;20.20;13.70;;;;;;;;;;5014069;28;20057;-66
2021/01/05 02:41:43;;;;;;;16.50;12.90;;;;;;;;;;5014278;28;20022;-65
2021/01/05 02:44:18;;;;;;;18.15;13.30;;;;;;;;;;5013962;28;20506;-66
2021/01/05 02:46:50;;;;;;;18.93;13.13;;;;;;;;;;5013987;28;20033;-66
2021/01/05 02:49:19;;;;;;;21.27;13.00;;;;;;;;;;5014033;28;20037;-66
2021/01/05 02:52:04;;;;;;;17.13;11.50;;;;;;;;;;5014021;28;20029;-66
2021/01/05 02:54:45;;;;;;;13.63;9.40;;;;;;;;;;5014455;28;20088;-65
2021/01/05 02:57:36;;;;;;;14.23;9.67;;;;;;;;;;5013779;28;20494;-66
2021/01/05 03:00:02;;;;;;;11.23;7.87;;;;;;;;;;5013960;28;20018;-66
2021/01/05 03:02:28;;;;;;;12.33;7.93;;;;;;;;;;5013893;28;20406;-66
2021/01/05 03:04:54;;;;;;;12.87;7.77;;;;;;;;;;5013628;28;20030;-66
2021/01/05 03:07:22;;;;;;;10.63;6.43;;;;;;;;;;5013716;28;20030;-66
2021/01/05 03:09:53;;;;;;;10.17;6.47;;;;;;;;;;5013609;28;20092;-66
2021/01/05 03:12:35;;;;;;;12.53;6.87;;;;;;;;;;5013662;28;20029;-66
2021/01/05 03:15:11;;;;;;;15.27;8.93;;;;;;;;;;5013805;28;20614;-66
2021/01/05 03:17:46;;;;;;;13.93;9.60;;;;;;;;;;5013525;28;20447;-66
2021/01/05 03:20:30;;;;;;;13.93;9.57;;;;;;;;;;5013728;28;20072;-66
2021/01/05 03:22:58;;;;;;;14.20;9.90;;;;;;;;;;5013596;28;20030;-66
2021/01/05 03:25:25;;;;;;;16.83;10.23;;;;;;;;;;5013672;28;20038;-66
2021/01/05 03:27:52;;;;;;;15.47;10.30;;;;;;;;;;5013317;28;20054;-66
2021/01/05 03:30:32;;;;;;;13.77;9.90;;;;;;;;;;5013318;28;20063;-66
2021/01/05 03:32:58;;;;;;;14.03;9.20;;;;;;;;;;5013190;28;20026;-66
2021/01/05 03:35:26;;;;;;;13.60;9.23;;;;;;;;;;5012783;28;20026;-66
2021/01/05 03:37:52;;;;;;;14.13;8.73;;;;;;;;;;5013336;28;20437;-66
2021/01/05 03:40:18;;;;;;;9.63;7.23;;;;;;;;;;5013364;28;20494;-66
2021/01/05 03:42:45;;;;;;;9.30;6.50;;;;;;;;;;5013310;28;20033;-65
2021/01/05 03:45:15;;;;;;;9.50;6.63;;;;;;;;;;5012097;28;20080;-66
2021/01/05 03:47:41;;;;;;;11.27;6.00;;;;;;;;;;5013173;28;20105;-66
2021/01/05 03:50:08;;;;;;;8.37;6.07;;;;;;;;;;5013106;28;20034;-66
2021/01/05 03:52:34;;;;;;;7.57;5.53;;;;;;;;;;5012076;28;20387;-66
2021/01/05 03:55:00;;;;;;;10.40;5.63;;;;;;;;;;5013331;28;20537;-66
2021/01/05 03:57:26;;;;;;;7.97;5.50;;;;;;;;;;5013189;28;20026;-66
2021/01/05 03:59:52;;;;;;;9.43;5.70;;;;;;;;;;5013185;28;20083;-66
2021/01/05 04:02:18;;;;;;;9.50;5.80;;;;;;;;;;5013260;28;20030;-66
2021/01/05 04:04:44;;;;;;;10.03;6.50;;;;;;;;;;5013156;28;20490;-66
2021/01/05 04:07:10;;;;;;;10.83;6.47;;;;;;;;;;5013001;28;20391;-66
2021/01/05 04:09:36;;;;;;;10.57;7.03;;;;;;;;;;5013017;28;20368;-66
2021/01/05 04:12:02;;;;;;;10.37;6.27;;;;;;;;;;5013009;28;20045;-66
2021/01/05 04:14:28;;;;;;;8.60;6.33;;;;;;;;;;5012967;28;20536;-66
2021/01/05 04:16:54;;;;;;;8.10;6.30;;;;;;;;;;5012759;28;20034;-66
2021/01/05 04:19:20;;;;;;;9.53;6.00;;;;;;;;;;5012873;28;20030;-66
2021/01/05 04:21:49;;;;;;;8.00;6.10;;;;;;;;;;5013040;28;20479;-66
2021/01/05 04:24:15;;;;;;;7.90;6.57;;;;;;;;;;5013073;28;20045;-66
2021/01/05 04:26:41;;;;;;;9.63;7.10;;;;;;;;;;5013027;28;20026;-66
2021/01/05 04:29:07;;;;;;;12.17;7.97;;;;;;;;;;5012844;28;20525;-66
2021/01/05 04:31:40;;;;;;;11.07;7.43;;;;;;;;;;5013132;28;20022;-65
2021/01/05 04:34:07;;;;;;;10.60;7.53;;;;;;;;;;5013041;28;20025;-66
2021/01/05 04:36:33;;;;;;;11.53;8.17;;;;;;;;;;5012675;28;20064;-66
2021/01/05 04:38:59;;;;;;;11.00;7.97;;;;;;;;;;5012695;28;20029;-66
2021/01/05 04:41:26;;;;;;;11.33;7.40;;;;;;;;;;5012733;28;20026;-66
2021/01/05 04:44:00;;;;;;;10.70;8.37;;;;;;;;;;5012722;28;20026;-66
2021/01/05 04:46:46;;;;;;;12.83;8.10;;;;;;;;;;5015810;28;20034;-66
2021/01/05 04:49:12;;;;;;;13.37;9.20;;;;;;;;;;5016336;28;20034;-66
2021/01/05 04:51:53;;;;;;;12.47;7.93;;;;;;;;;;5016277;28;20060;-66
2021/01/05 04:54:25;;;;;;;10.97;8.00;;;;;;;;;;5016048;28;20025;-66
2021/01/05 04:56:55;;;;;;;12.40;8.93;;;;;;;;;;5016334;28;20057;-66
2021/01/05 04:59:23;;;;;;;13.17;8.40;;;;;;;;;;5016140;28;20073;-66
2021/01/05 05:01:49;;;;;;;11.47;8.80;;;;;;;;;;5016142;28;20022;-66
2021/01/05 05:04:30;;;;;;;14.80;9.03;;;;;;;;;;5015552;28;20474;-66
2021/01/05 05:07:08;;;;;;;13.80;9.03;;;;;;;;;;5016093;28;20058;-66
2021/01/05 05:09:43;;;;;;;12.07;8.33;;;;;;;;;;5016075;28;20033;-65
2021/01/05 05:12:12;;;;;;;12.50;8.57;;;;;;;;;;5015867;28;20482;-66
2021/01/05 05:14:46;;;;;;;10.77;7.50;;;;;;;;;;5015867;28;20030;-66
2021/01/05 05:17:12;;;;;;;12.90;8.23;;;;;;;;;;5015589;28;20476;-66
2021/01/05 05:19:38;;;;;;;11.27;8.63;;;;;;;;;;5015724;28;20108;-66
2021/01/05 05:22:24;;;;;;;11.60;8.90;;;;;;;;;;5015684;28;20033;-66
2021/01/05 05:25:04;;;;;;;9.90;7.10;;;;;;;;;;5015916;28;20073;-66
2021/01/05 05:27:30;;;;;;;10.10;6.90;;;;;;;;;;5015683;28;20025;-66
2021/01/05 05:30:07;;;;;;;7.20;5.10;;;;;;;;;;5015729;28;20030;-66
2021/01/05 05:32:38;;;;;;;10.63;6.00;;;;;;;;;;5015346;28;20030;-66
2021/01/05 05:35:04;;;;;;;9.80;6.83;;;;;;;;;;5015258;28;20152;-66
2021/01/05 05:37:49;;;;;;;11.23;7.90;;;;;;;;;;5015474;28;20096;-66
2021/01/05 05:40:18;;;;;;;9.03;7.33;;;;;;;;;;5015572;28;20030;-65
2021/01/05 05:42:46;;;;;;;9.57;7.40;;;;;;;;;;5015369;28;20030;-66
2021/01/05 05:45:22;;;;;;;13.33;7.70;;;;;;;;;;5015179;28;20038;-66
2021/01/05 05:47:56;;;;;;;10.57;6.73;;;;;;;;;;5015205;28;20030;-66
2021/01/05 05:50:25;;;;;;;8.93;6.20;;;;;;;;;;5015420;28;20029;-66
2021/01/05 05:52:58;;;;;;;6.00;4.70;;;;;;;;;;5014906;28;20056;-66
2021/01/05 05:55:43;;;;;;;4.10;3.30;;;;;;;;;;5015070;28;20021;-66
2021/01/05 05:58:10;;;;;;;5.33;3.70;;;;;;;;;;5014372;28;20432;-65
2021/01/05 06:00:41;;;;;;;5.90;2.80;;;;;;;;;;5014891;28;20022;-65
2021/01/05 06:03:11;;;;;;;4.47;3.33;;;;;;;;;;5015162;28;20079;-66
2021/01/05 06:05:38;;;;;;;5.20;2.97;;;;;;;;;;5014808;28;20038;-66
2021/01/05 06:08:06;;;;;;;4.13;3.10;;;;;;;;;;5014871;28;20540;-66
2021/01/05 06:10:32;;;;;;;5.23;3.10;;;;;;;;;;5014885;28;20065;-66
2021/01/05 06:12:58;;;;;;;4.97;3.33;;;;;;;;;;5014542;28;20029;-66
2021/01/05 06:15:24;;;;;;;4.90;3.70;;;;;;;;;;5014833;28;20044;-66
2021/01/05 06:17:50;;;;;;;11.17;6.20;;;;;;;;;;5014453;28;20411;-66
2021/01/05 06:20:17;;;;;;;7.10;5.17;;;;;;;;;;5014634;28;20057;-66
2021/01/05 06:22:43;;;;;;;7.83;4.77;;;;;;;;;;5014330;28;20541;-66
2021/01/05 06:25:09;;;;;;;11.17;6.37;;;;;;;;;;5014475;28;20030;-66
2021/01/05 06:27:36;;;;;;;9.20;6.70;;;;;;;;;;5014459;28;20111;-66
2021/01/05 06:30:02;;;;;;;11.13;6.70;;;;;;;;;;5014489;28;20022;-65
2021/01/05 06:32:28;;;;;;;9.80;6.73;;;;;;;;;;5014461;28;20378;-66
2021/01/05 06:34:54;;;;;;;11.07;7.40;;;;;;;;;;5014342;28;20018;-66
2021/01/05 06:37:20;;;;;;;10.07;6.87;;;;;;;;;;5014407;28;20057;-66
2021/01/05 06:39:46;;;;;;;11.70;7.50;;;;;;;;;;5014399;28;20034;-66
2021/01/05 06:42:12;;;;;;;12.20;7.37;;;;;;;;;;5013962;28;20033;-66
2021/01/05 06:44:38;;;;;;;12.03;6.97;;;;;;;;;;5014071;28;20034;-66
2021/01/05 06:47:04;;;;;;;9.77;7.23;;;;;;;;;;5014509;28;20042;-66
2021/01/05 06:49:30;;;;;;;9.13;7.07;;;;;;;;;;5015617;28;20026;-66
2021/01/05 06:51:57;;;;;;;9.10;6.33;;;;;;;;;;5014364;28;20033;-66
2021/01/05 06:54:24;;;;;;;8.87;6.60;;;;;;;;;;5014109;28;20022;-66
2021/01/05 06:56:50;;;;;;;9.80;7.20;;;;;;;;;;5013807;28;20034;-66
2021/01/05 06:59:16;;;;;;;8.67;6.37;;;;;;;;;;5014163;28;20022;-66
2021/01/05 07:01:42;;;;;;;9.10;7.30;;;;;;;;;;5013801;28;20025;-66
2021/01/05 07:04:08;;;;;;;11.53;7.20;;;;;;;;;;5013521;28;20034;-66
2021/01/05 07:06:34;;;;;;;9.13;7.13;;;;;;;;;;5021594;28;20036;-66
2021/01/05 07:09:00;;;;;;;11.30;6.63;;;;;;;;;;5019943;28;20466;-66
2021/01/05 07:11:26;;;;;;;9.80;7.20;;;;;;;;;;5013437;28;20379;-66
2021/01/05 07:13:52;;;;;;;12.30;7.43;;;;;;;;;;5013780;28;20029;-66
2021/01/05 07:16:18;;;;;;;9.73;6.97;;;;;;;;;;5013848;28;20029;-66
2021/01/05 07:18:44;;;;;;;9.53;6.80;;;;;;;;;;5013528;28;20129;-66
2021/01/05 07:21:10;;;;;;;12.77;7.60;;;;;;;;;;5013535;28;20056;-66
2021/01/05 07:23:36;;;;;;;10.70;7.10;;;;;;;;;;5013525;28;20030;-66
2021/01/05 07:26:02;;;;;;;11.57;7.87;;;;;;;;;;5013334;28;20145;-66
2021/01/05 07:28:28;;;;;;;10.47;7.77;;;;;;;;;;5013652;28;20103;-66
2021/01/05 07:30:54;;;;;;;10.17;7.90;;;;;;;;;;5012785;28;20058;-65
2021/01/05 07:33:20;;;;;;;14.80;10.03;;;;;;;;;;5013620;28;20030;-66
2021/01/05 07:35:46;;;;;;;18.27;12.63;;;;;;;;;;5013361;28;20022;-66
2021/01/05 07:38:13;;;;;;;14.33;10.67;;;;;;;;;;5013406;28;20034;-65
2021/01/05 07:40:39;;;;;;;18.07;12.40;;;;;;;;;;5013328;28;20038;-66
2021/01/05 07:43:05;;;;;;;18.13;12.10;;;;;;;;;;5013482;28;20375;-66
2021/01/05 07:45:31;;;;;;;20.00;13.13;;;;;;;;;;5012973;28;20475;-66
2021/01/05 07:47:57;;;;;;;22.80;15.30;;;;;;;;;;5013311;28;20026;-66
2021/01/05 07:50:25;;;;;;;25.27;15.37;;;;;;;;;;5013358;28;20037;-65
2021/01/05 07:52:51;;;;;;;21.93;14.80;;;;;;;;;;5013289;28;20030;-66
2021/01/05 07:55:19;;;;;;;21.17;14.20;;;;;;;;;;5011350;28;20030;-66
2021/01/05 07:57:45;;;;;;;21.57;14.47;;;;;;;;;;5012261;28;20026;-69
2021/01/05 08:00:16;;;;;;;20.97;13.13;;;;;;;;;;5022470;28;20028;-66
2021/01/05 08:02:42;;;;;;;19.83;13.07;;;;;;;;;;5032016;28;20053;-66
2021/01/05 08:05:09;;;;;;;17.27;10.83;;;;;;;;;;5032317;28;20394;-65
2021/01/05 08:07:35;;;;;;;11.83;7.93;;;;;;;;;;5031906;28;20057;-65
2021/01/05 08:10:01;;;;;;;16.00;10.00;;;;;;;;;;5031753;28;20088;-68
2021/01/05 08:12:27;;;;;;;16.43;11.40;;;;;;;;;;5032285;28;20037;-66
2021/01/05 08:14:53;;;;;;;22.20;14.00;;;;;;;;;;5032116;28;20026;-66
2021/01/05 08:17:20;;;;;;;23.47;15.97;;;;;;;;;;5031885;28;20179;-65
2021/01/05 08:19:46;;;;;;;25.87;16.73;;;;;;;;;;5032942;28;20390;-70
2021/01/05 08:22:12;;;;;;;22.30;15.30;;;;;;;;;;5035810;28;20644;-65
2021/01/05 08:24:38;;;;;;;25.03;16.80;;;;;;;;;;5035916;28;20035;-66
2021/01/05 08:27:08;;;;;;;21.97;15.77;;;;;;;;;;5035909;28;20079;-65
2021/01/05 08:29:35;;;;;;;19.20;15.67;;;;;;;;;;5035037;28;20048;-66
2021/01/05 08:32:01;;;;;;;20.07;14.30;;;;;;;;;;5034140;28;20026;-66
2021/01/05 08:34:27;;;;;;;19.03;13.97;;;;;;;;;;5034451;28;20025;-66
2021/01/05 08:36:53;;;;;;;17.33;12.97;;;;;;;;;;5034687;28;20029;-65
2021/01/05 08:39:19;;;;;;;19.40;13.10;;;;;;;;;;5035441;28;20025;-66
2021/01/05 08:41:45;;;;;;;18.93;13.27;;;;;;;;;;5034865;28;20025;-66
2021/01/05 08:44:12;;;;;;;17.73;13.00;;;;;;;;;;5036200;28;20025;-65
2021/01/05 08:46:38;;;;;;;20.27;11.80;;;;;;;;;;5036083;28;20037;-66
2021/01/05 08:49:05;;;;;;;20.57;12.87;;;;;;;;;;5036067;28;20036;-65
2021/01/05 08:51:32;;;;;;;17.23;12.57;;;;;;;;;;5035964;28;20386;-65
2021/01/05 08:53:58;;;;;;;13.77;9.90;;;;;;;;;;5036012;28;20066;-66
2021/01/05 08:56:25;;;;;;;13.57;8.43;;;;;;;;;;5035464;28;20436;-67
2021/01/05 08:58:52;;;;;;;10.67;7.67;;;;;;;;;;5034688;28;20029;-71
2021/01/05 09:01:18;;;;;;;10.30;6.63;;;;;;;;;;5035555;28;20478;-66
2021/01/05 09:03:44;;;;;;;9.27;6.60;;;;;;;;;;5035529;28;20040;-66
2021/01/05 09:06:11;;;;;;;8.87;6.27;;;;;;;;;;5034610;28;20046;-67
2021/01/05 09:08:38;;;;;;;8.13;5.70;;;;;;;;;;5035761;28;20025;-66
2021/01/05 09:11:08;;;;;;;9.17;4.87;;;;;;;;;;5035704;28;20032;-65
2021/01/05 09:13:34;;;;;;;7.73;5.40;;;;;;;;;;5035849;28;20421;-66
2021/01/05 09:16:00;;;;;;;6.20;4.50;;;;;;;;;;5035537;28;20032;-66
2021/01/05 09:18:26;;;;;;;8.73;4.40;;;;;;;;;;5034926;28;20088;-66
2021/01/05 09:20:53;;;;;;;11.13;5.13;;;;;;;;;;5035489;28;20055;-66
2021/01/05 09:23:22;;;;;;;8.83;5.20;;;;;;;;;;5035685;28;20060;-66
2021/01/05 09:25:52;;;;;;;8.13;5.40;;;;;;;;;;5035361;28;20037;-66
2021/01/05 09:28:18;;;;;;;6.97;4.70;;;;;;;;;;5035661;28;20355;-66
2021/01/05 09:30:48;;;;;;;6.73;4.37;;;;;;;;;;5035367;28;20025;-68
2021/01/05 09:33:14;;;;;;;5.80;4.03;;;;;;;;;;5034526;28;20022;-66
2021/01/05 09:35:40;;;;;;;6.10;4.07;;;;;;;;;;5035406;28;20467;-67
2021/01/05 09:38:09;;;;;;;4.37;3.30;;;;;;;;;;5035047;28;20017;-66
2021/01/05 09:40:39;;;;;;;5.40;3.57;;;;;;;;;;5035434;28;20028;-68
2021/01/05 09:43:05;;;;;;;6.73;4.37;;;;;;;;;;5030395;28;20022;-66
2021/01/05 09:45:31;;;;;;;7.10;3.80;;;;;;;;;;5015134;28;20065;-67
2021/01/05 09:48:07;;;;;;;6.17;3.93;;;;;;;;;;5014828;28;20018;-67
2021/01/05 09:50:33;;;;;;;5.53;3.90;;;;;;;;;;5014990;28;20120;-66
2021/01/05 09:52:59;;;;;;;5.07;3.43;;;;;;;;;;5015123;28;20550;-66
2021/01/05 09:55:26;;;;;;;4.27;3.07;;;;;;;;;;5015199;28;20387;-67
2021/01/05 09:57:53;;;;;;;4.97;3.37;;;;;;;;;;5014992;28;20038;-67
2021/01/05 10:00:19;;;;;;;5.50;3.20;;;;;;;;;;5014921;28;20061;-67
2021/01/05 10:02:45;;;;;;;6.00;3.60;;;;;;;;;;5014993;28;20076;-66
2021/01/05 10:05:12;;;;;;;5.90;3.67;;;;;;;;;;5014740;28;20535;-67
2021/01/05 10:07:38;;;;;;;7.30;4.67;;;;;;;;;;5013458;28;20395;-67
2021/01/05 10:10:05;;;;;;;8.67;7.13;;;;;;;;;;5014016;28;20029;-67
2021/01/05 10:12:31;;;;;;;8.27;4.80;;;;;;;;;;5014083;28;20159;-68
2021/01/05 10:14:57;;;;;;;7.47;4.87;;;;;;;;;;5014484;28;20022;-67
2021/01/05 10:17:23;;;;;;;4.80;4.00;;;;;;;;;;5014087;28;20125;-67
2021/01/05 10:19:49;;;;;;;7.53;3.83;;;;;;;;;;5014302;28;20384;-67
2021/01/05 10:22:15;;;;;;;5.67;3.70;;;;;;;;;;5014451;28;20037;-67
2021/01/05 10:24:41;;;;;;;5.37;3.30;;;;;;;;;;5014391;28;20387;-68
2021/01/05 10:27:07;;;;;;;4.80;3.30;;;;;;;;;;5014369;28;20198;-67
2021/01/05 10:29:33;;;;;;;4.70;2.90;;;;;;;;;;5014511;28;20025;-65
2021/01/05 10:31:59;;;;;;;5.90;3.20;;;;;;;;;;5014280;28;20034;-65
2021/01/05 10:34:25;;;;;;;4.30;3.30;;;;;;;;;;5014190;28;20030;-65
2021/01/05 10:36:53;;;;;;;6.23;3.27;;;;;;;;;;5014053;28;20029;-65
2021/01/05 10:39:19;;;;;;;5.20;3.70;;;;;;;;;;5014403;28;20026;-65
2021/01/05 10:41:45;;;;;;;5.43;3.40;;;;;;;;;;5014392;28;20116;-65
2021/01/05 10:44:14;;;;;;;3.97;3.13;;;;;;;;;;5014170;28;20061;-65
2021/01/05 10:46:40;;;;;;;6.30;3.20;;;;;;;;;;5014057;28;20041;-65
2021/01/05 10:49:07;;;;;;;4.53;3.07;;;;;;;;;;5014231;28;20022;-65
2021/01/05 10:51:34;;;;;;;4.80;3.57;;;;;;;;;;5014014;28;20030;-65
2021/01/05 10:54:01;;;;;;;7.83;6.00;;;;;;;;;;5014140;28;20053;-65
2021/01/05 10:56:28;;;;;;;6.90;4.77;;;;;;;;;;5013974;28;20108;-65
2021/01/05 10:58:54;;;;;;;8.27;4.70;;;;;;;;;;5014046;28;20080;-65
2021/01/05 11:01:20;;;;;;;6.73;3.60;;;;;;;;;;5013986;28;20033;-65
2021/01/05 11:03:46;;;;;;;7.07;4.00;;;;;;;;;;5013585;28;20029;-66
2021/01/05 11:06:12;;;;;;;6.43;4.13;;;;;;;;;;5013350;28;20574;-65
2021/01/05 11:08:38;;;;;;;6.73;4.13;;;;;;;;;;5013694;28;20395;-66
2021/01/05 11:11:05;;;;;;;5.40;3.73;;;;;;;;;;5013892;28;20046;-65
2021/01/05 11:13:32;;;;;;;6.47;3.43;;;;;;;;;;5013679;28;20041;-66
2021/01/05 11:15:58;;;;;;;6.13;3.80;;;;;;;;;;5013519;28;20037;-65
2021/01/05 11:18:25;;;;;;;5.10;3.70;;;;;;;;;;5013332;28;20052;-65
2021/01/05 11:20:51;;;;;;;4.93;3.80;;;;;;;;;;5013783;28;20061;-65
2021/01/05 11:23:17;;;;;;;4.87;3.40;;;;;;;;;;5013382;28;20030;-65
2021/01/05 11:25:43;;;;;;;5.80;3.63;;;;;;;;;;5013484;28;20041;-65
2021/01/05 11:28:10;;;;;;;4.67;3.37;;;;;;;;;;5013492;28;20053;-65
2021/01/05 11:30:36;;;;;;;6.73;3.53;;;;;;;;;;5013549;28;20025;-65
2021/01/05 11:33:02;;;;;;;6.90;3.53;;;;;;;;;;5013333;28;20045;-65
2021/01/05 11:35:28;;;;;;;7.63;5.00;;;;;;;;;;5013668;28;20072;-65
2021/01/05 11:37:54;;;;;;;6.10;3.80;;;;;;;;;;5013299;28;20053;-65
2021/01/05 11:40:20;;;;;;;8.50;3.50;;;;;;;;;;5013837;28;20018;-65
2021/01/05 11:42:48;;;;;;;18.63;13.43;;;;;;;;;;5012441;28;20113;-66
2021/01/05 11:45:14;;;;;;;9.53;6.03;;;;;;;;;;5012853;28;20037;-65
2021/01/05 11:47:40;;;;;;;7.57;6.03;;;;;;;;;;5013058;28;20398;-66
2021/01/05 11:50:10;;;;;;;6.00;4.10;;;;;;;;;;5013388;28;20075;-65
2021/01/05 11:52:36;;;;;;;6.63;4.63;;;;;;;;;;5013107;28;20104;-66
2021/01/05 11:55:02;;;;;;;7.63;4.30;;;;;;;;;;5014452;28;20101;-65
2021/01/05 11:57:28;;;;;;;11.17;7.37;;;;;;;;;;5017130;28;20030;-65
2021/01/05 11:59:54;;;;;;;5.73;4.40;;;;;;;;;;5016931;28;20026;-66
2021/01/05 12:02:20;;;;;;;6.47;4.50;;;;;;;;;;5017219;28;20039;-66
2021/01/05 12:04:46;;;;;;;7.73;3.87;;;;;;;;;;5017128;28;20022;-66
2021/01/05 12:07:12;;;;;;;3.87;2.10;;;;;;;;;;5017015;28;20041;-65
2021/01/05 12:09:38;;;;;;;3.40;2.17;;;;;;;;;;5017187;28;20022;-65
2021/01/05 12:12:08;;;;;;;3.27;1.70;;;;;;;;;;5017287;28;20105;-66
2021/01/05 12:14:35;;;;;;;3.07;1.80;;;;;;;;;;5017198;28;20026;-65
2021/01/05 12:17:01;;;;;;;4.63;2.17;;;;;;;;;;5016760;28;20046;-65
2021/01/05 12:19:32;;;;;;;5.40;2.03;;;;;;;;;;5016588;28;20045;-66
2021/01/05 12:22:00;;;;;;;3.33;2.07;;;;;;;;;;5016911;28;20446;-66
2021/01/05 12:24:27;;;;;;;3.10;2.17;;;;;;;;;;5016917;28;20026;-66
2021/01/05 12:26:56;;;;;;;3.20;2.20;;;;;;;;;;5016705;28;20030;-66
2021/01/05 12:29:23;;;;;;;4.80;2.23;;;;;;;;;;5016944;28;20118;-66
2021/01/05 12:31:59;;;;;;;3.53;2.40;;;;;;;;;;5016709;28;20076;-66
2021/01/05 12:34:27;;;;;;;4.07;2.40;;;;;;;;;;5016233;28;20029;-65
2021/01/05 12:36:54;;;;;;;5.03;2.70;;;;;;;;;;5016466;28;20033;-66
2021/01/05 12:39:27;;;;;;;3.00;2.03;;;;;;;;;;5016488;28;20061;-65
2021/01/05 12:41:54;;;;;;;3.60;1.83;;;;;;;;;;5016613;28;20494;-66
2021/01/05 12:44:22;;;;;;;5.13;2.63;;;;;;;;;;5016382;28;20022;-65
2021/01/05 12:46:48;;;;;;;7.97;3.07;;;;;;;;;;5016104;28;20037;-66
2021/01/05 12:49:15;;;;;;;5.47;2.40;;;;;;;;;;5016385;28;20106;-66
2021/01/05 12:51:42;;;;;;;6.30;2.50;;;;;;;;;;5016112;28;20029;-65
2021/01/05 12:54:11;;;;;;;2.97;1.80;;;;;;;;;;5016294;28;20029;-66
2021/01/05 12:56:37;;;;;;;2.67;1.77;;;;;;;;;;5016105;28;20026;-66
2021/01/05 12:59:03;;;;;;;6.13;2.20;;;;;;;;;;5016275;28;20052;-66
2021/01/05 13:01:30;;;;;;;4.43;2.30;;;;;;;;;;5016039;28;20026;-66
2021/01/05 13:03:56;;;;;;;3.90;2.50;;;;;;;;;;5031517;28;20487;-65
2021/01/05 13:06:22;;;;;;;3.60;2.37;;;;;;;;;;5012557;28;20034;-67
2021/01/05 13:08:49;;;;;;;3.70;2.40;;;;;;;;;;5013163;28;20028;-67
2021/01/05 13:11:20;;;;;;;4.00;2.50;;;;;;;;;;5013154;28;20059;-67
2021/01/05 13:13:46;;;;;;;255.13;14.40;;;;;;;;;;5015466;28;20113;-67
2021/01/05 13:16:16;;;;;;;6.27;2.70;;;;;;;;;;5015756;28;20030;-67
2021/01/05 13:18:42;;;;;;;6.77;2.27;;;;;;;;;;5015724;28;20073;-67
2021/01/05 13:21:08;;;;;;;8.17;2.60;;;;;;;;;;5014118;28;20029;-66
2021/01/05 13:23:34;;;;;;;7.00;2.67;;;;;;;;;;5013047;28;20113;-67
2021/01/05 13:26:01;;;;;;;5.83;3.10;;;;;;;;;;5013699;28;20112;-66
2021/01/05 13:28:27;;;;;;;5.03;2.53;;;;;;;;;;5015537;28;20018;-66
2021/01/05 13:30:53;;;;;;;7.40;3.10;;;;;;;;;;5015384;28;20026;-66
2021/01/05 13:33:19;;;;;;;6.27;3.07;;;;;;;;;;5015215;28;20022;-67
2021/01/05 13:35:45;;;;;;;6.83;2.77;;;;;;;;;;5015479;28;20073;-67
2021/01/05 13:38:11;;;;;;;9.80;4.70;;;;;;;;;;5015268;28;20026;-66
2021/01/05 13:40:39;;;;;;;5.10;2.90;;;;;;;;;;5015335;28;20022;-66
2021/01/05 13:43:05;;;;;;;14.43;3.43;;;;;;;;;;5015162;28;20040;-66
2021/01/05 13:45:31;;;;;;;7.13;3.43;;;;;;;;;;5014913;28;20041;-65
2021/01/05 13:47:57;;;;;;;5.50;3.30;;;;;;;;;;5014738;28;20494;-67
2021/01/05 13:50:23;;;;;;;6.33;3.33;;;;;;;;;;5014921;28;20026;-68
2021/01/05 13:52:50;;;;;;;13.33;3.97;;;;;;;;;;5014876;28;20049;-65
2021/01/05 13:55:17;;;;;;;8.67;3.70;;;;;;;;;;5014815;28;20037;-65
2021/01/05 13:57:47;;;;;;;7.47;3.47;;;;;;;;;;5014909;28;20022;-66
2021/01/05 14:00:13;;;;;;;4.83;3.10;;;;;;;;;;5015150;28;20025;-65
2021/01/05 14:02:39;;;;;;;6.27;3.53;;;;;;;;;;5014804;28;20440;-65
2021/01/05 14:05:06;;;;;;;4.43;2.43;;;;;;;;;;5014832;28;20033;-65
2021/01/05 14:07:33;;;;;;;4.77;2.80;;;;;;;;;;5015026;28;20030;-65
2021/01/05 14:09:59;;;;;;;7.60;4.50;;;;;;;;;;5014974;28;20471;-65
2021/01/05 14:12:26;;;;;;;19.87;4.80;;;;;;;;;;5014924;28;20052;-65
2021/01/05 14:14:53;;;;;;;7.40;4.40;;;;;;;;;;5015011;28;20068;-65
2021/01/05 14:17:21;;;;;;;7.43;4.17;;;;;;;;;;5014163;28;20545;-66
2021/01/05 14:19:48;;;;;;;6.63;3.70;;;;;;;;;;5014676;28;20053;-66
2021/01/05 14:22:15;;;;;;;4.47;3.10;;;;;;;;;;5014663;28;20021;-66
2021/01/05 14:24:41;;;;;;;4.80;3.23;;;;;;;;;;5012561;28;20029;-66
2021/01/05 14:27:08;;;;;;;5.20;3.03;;;;;;;;;;5013971;28;20033;-65
2021/01/05 14:29:34;;;;;;;8.90;3.40;;;;;;;;;;5024566;28;20026;-66
2021/01/05 14:32:04;;;;;;;4.37;2.80;;;;;;;;;;5033477;28;20029;-65
2021/01/05 14:34:31;;;;;;;6.60;2.97;;;;;;;;;;5033877;28;20022;-67
2021/01/05 14:36:58;;;;;;;7.37;4.40;;;;;;;;;;5033224;28;20025;-67